createdAt,value
2019-05-17T00:01:42.140Z,0.98
2019-05-17T00:04:08.531Z,0.98
2019-05-17T00:06:37.834Z,1.25
2019-05-17T00:09:07.787Z,0.90
2019-05-17T00:11:40.169Z,1.00
2019-05-17T00:14:13.412Z,0.85
2019-05-17T00:16:43.774Z,0.95
2019-05-17T00:19:13.186Z,0.90
2019-05-17T00:21:47.676Z,0.82
2019-05-17T00:24:20.343Z,0.98
2019-05-17T00:26:49.794Z,0.98
2019-05-17T00:29:18.889Z,0.98
2019-05-17T00:31:48.860Z,1.00
2019-05-17T00:34:19.596Z,0.90
2019-05-17T00:36:50.684Z,0.83
2019-05-17T00:39:31.381Z,0.85
2019-05-17T00:42:02.596Z,0.80
2019-05-17T00:44:32.984Z,1.00
2019-05-17T00:47:06.591Z,1.00
2019-05-17T00:49:39.473Z,1.02
2019-05-17T00:52:08.665Z,0.80
2019-05-17T00:54:43.187Z,0.93
2019-05-17T00:57:13.921Z,1.05
2019-05-17T00:59:48.237Z,0.90
2019-05-17T01:02:17.639Z,0.90
2019-05-17T01:04:47.568Z,1.00
2019-05-17T01:07:17.735Z,1.10
2019-05-17T01:09:47.309Z,1.02
2019-05-17T01:12:16.578Z,0.90
2019-05-17T01:14:47.779Z,0.90
2019-05-17T01:17:17.022Z,1.00
2019-05-17T01:19:47.167Z,0.90
2019-05-17T01:22:16.978Z,1.00
2019-05-17T01:24:49.281Z,0.80
2019-05-17T01:27:18.777Z,0.90
2019-05-17T01:29:47.965Z,0.80
2019-05-17T01:32:17.588Z,0.80
2019-05-17T01:34:48.574Z,1.00
2019-05-17T01:37:20.467Z,0.80
2019-05-17T01:39:49.729Z,0.90
2019-05-17T01:42:21.082Z,0.95
2019-05-17T01:44:53.097Z,1.00
2019-05-17T01:47:22.169Z,0.90
2019-05-17T01:49:51.403Z,0.80
2019-05-17T01:52:20.746Z,1.00
2019-05-17T01:54:52.975Z,1.10
2019-05-17T01:57:23.224Z,1.00
2019-05-17T01:59:52.394Z,0.88
2019-05-17T02:02:28.991Z,0.90
2019-05-17T02:05:02.151Z,0.70
2019-05-17T02:07:31.441Z,0.95
2019-05-17T02:10:01.126Z,0.98
2019-05-17T02:12:37.903Z,0.93
2019-05-17T02:15:07.565Z,0.90
2019-05-17T02:17:37.292Z,0.80
2019-05-17T02:20:10.268Z,0.85
2019-05-17T02:22:40.719Z,1.00
2019-05-17T02:25:16.560Z,1.05
2019-05-17T02:27:46.423Z,0.90
2019-05-17T02:30:16.033Z,0.88
2019-05-17T02:32:53.860Z,1.00
2019-05-17T02:35:23.774Z,1.00
2019-05-17T02:37:56.453Z,0.90
2019-05-17T02:40:25.972Z,0.80
2019-05-17T02:42:55.215Z,0.98
2019-05-17T02:45:24.633Z,1.10
2019-05-17T02:47:56.901Z,0.82
2019-05-17T02:50:43.158Z,1.00
2019-05-17T02:53:18.147Z,0.90
2019-05-17T02:55:53.906Z,1.05
2019-05-17T02:58:23.669Z,0.70
2019-05-17T03:00:53.545Z,0.95
2019-05-17T03:03:26.527Z,1.00
2019-05-17T03:05:56.000Z,1.10
2019-05-17T03:08:33.633Z,0.80
2019-05-17T03:11:03.503Z,0.80
2019-05-17T03:13:33.216Z,1.02
2019-05-17T03:16:04.236Z,1.00
2019-05-17T03:18:35.140Z,0.98
2019-05-17T03:21:13.880Z,0.80
2019-05-17T03:23:43.840Z,0.98
2019-05-17T03:26:14.802Z,0.93
2019-05-17T03:28:45.921Z,1.10
2019-05-17T03:31:19.737Z,0.90
2019-05-17T03:33:55.830Z,1.02
2019-05-17T03:36:26.148Z,0.88
2019-05-17T03:41:29.201Z,0.80
2019-05-17T03:44:03.217Z,0.80
2019-05-17T03:46:35.796Z,0.62
2019-05-17T03:49:12.850Z,0.95
2019-05-17T03:51:44.670Z,1.00
2019-05-17T03:54:17.751Z,1.10
2019-05-17T03:56:55.831Z,1.10
2019-05-17T03:59:25.401Z,1.00
2019-05-17T04:01:54.764Z,1.20
2019-05-17T04:04:26.100Z,0.90
2019-05-17T04:07:03.674Z,1.00
2019-05-17T04:09:37.757Z,1.02
2019-05-17T04:12:06.685Z,0.90
2019-05-17T04:14:42.931Z,0.95
2019-05-17T04:17:14.564Z,1.00
2019-05-17T04:19:48.462Z,0.88
2019-05-17T04:22:23.870Z,0.90
2019-05-17T04:24:53.320Z,0.98
2019-05-17T04:27:26.515Z,0.90
2019-05-17T04:29:56.128Z,0.80
2019-05-17T04:32:25.479Z,1.00
2019-05-17T04:35:03.679Z,1.02
2019-05-17T04:37:33.569Z,0.98
2019-05-17T04:42:44.838Z,0.93
2019-05-17T04:45:15.788Z,0.80
2019-05-17T04:47:52.869Z,0.90
2019-05-17T04:50:27.490Z,1.00
2019-05-17T04:53:02.343Z,0.65
2019-05-17T04:55:29.515Z,0.93
2019-05-17T04:58:04.063Z,1.00
2019-05-17T05:00:34.395Z,1.00
2019-05-17T05:03:12.858Z,0.80
2019-05-17T05:05:43.728Z,1.15
2019-05-17T05:08:28.231Z,1.37
2019-05-17T05:10:57.546Z,1.50
2019-05-17T05:13:27.076Z,1.32
2019-05-17T05:16:05.758Z,1.30
2019-05-17T05:18:41.932Z,1.30
2019-05-17T05:21:12.834Z,1.20
2019-05-17T05:23:42.710Z,1.20
2019-05-17T05:26:12.421Z,1.62
2019-05-17T05:28:52.667Z,1.45
2019-05-17T05:31:29.006Z,1.50
2019-05-17T05:34:06.549Z,1.50
2019-05-17T05:36:41.886Z,1.30
2019-05-17T05:39:11.723Z,1.32
2019-05-17T05:41:46.286Z,1.17
2019-05-17T05:44:38.461Z,1.22
2019-05-17T05:47:23.558Z,1.22
2019-05-17T05:50:17.629Z,1.45
2019-05-17T05:52:46.063Z,1.30
2019-05-17T05:55:15.408Z,1.60
2019-05-17T05:57:52.294Z,1.50
2019-05-17T06:00:25.417Z,1.62
2019-05-17T06:02:57.664Z,1.85
2019-05-17T06:05:26.947Z,2.17
2019-05-17T06:07:56.109Z,2.83
2019-05-17T06:10:25.657Z,1.98
2019-05-17T06:12:58.824Z,2.15
2019-05-17T06:15:46.116Z,1.95
2019-05-17T06:18:22.485Z,7.97
2019-05-17T06:21:05.418Z,4.45
2019-05-17T06:23:53.925Z,3.00
2019-05-17T06:26:26.056Z,3.08
2019-05-17T06:28:58.486Z,3.10
2019-05-17T06:31:27.855Z,2.65
2019-05-17T06:34:17.981Z,2.55
2019-05-17T06:36:47.396Z,2.65
2019-05-17T06:39:35.837Z,2.52
2019-05-17T06:42:08.904Z,2.80
2019-05-17T06:44:41.836Z,2.52
2019-05-17T06:47:15.167Z,2.75
2019-05-17T06:49:53.676Z,2.42
2019-05-17T06:52:22.900Z,2.80
2019-05-17T06:54:52.576Z,2.33
2019-05-17T06:57:24.892Z,2.72
2019-05-17T06:59:55.514Z,3.98
2019-05-17T07:02:40.319Z,5.12
2019-05-17T07:08:34.122Z,6.78
2019-05-17T07:11:09.714Z,6.65
2019-05-17T07:13:43.482Z,7.00
2019-05-17T07:16:30.119Z,6.45
2019-05-17T07:20:00.770Z,5.15
2019-05-17T07:23:20.365Z,4.53
2019-05-17T07:25:55.899Z,3.17
2019-05-17T07:28:40.361Z,3.25
2019-05-17T07:31:04.227Z,3.12
2019-05-17T07:33:42.523Z,2.80
2019-05-17T07:36:30.706Z,2.50
2019-05-17T07:39:00.814Z,2.10
2019-05-17T07:41:36.179Z,2.10
2019-05-17T07:44:11.758Z,1.95
2019-05-17T07:46:43.852Z,1.70
2019-05-17T07:49:15.108Z,1.62
2019-05-17T07:51:53.101Z,1.37
2019-05-17T07:54:24.448Z,1.45
2019-05-17T07:56:53.510Z,1.95
2019-05-17T07:59:23.476Z,1.60
2019-05-17T08:01:57.018Z,1.70
2019-05-17T08:04:51.878Z,1.57
2019-05-17T08:07:23.352Z,1.35
2019-05-17T08:10:06.107Z,1.47
2019-05-17T08:12:44.037Z,1.30
2019-05-17T08:15:23.872Z,1.35
2019-05-17T08:18:12.497Z,1.10
2019-05-17T08:20:46.620Z,1.42
2019-05-17T08:23:30.419Z,1.20
2019-05-17T08:26:40.590Z,1.20
2019-05-17T08:29:10.247Z,1.20
2019-05-17T08:31:40.406Z,1.37
2019-05-17T08:34:17.175Z,1.25
2019-05-17T08:37:20.412Z,1.12
2019-05-17T08:40:25.908Z,1.00
2019-05-17T08:43:01.833Z,1.22
2019-05-17T08:45:52.463Z,1.55
2019-05-17T08:48:35.453Z,1.30
2019-05-17T08:51:30.494Z,1.20
2019-05-17T08:54:33.650Z,1.90
2019-05-17T08:57:21.572Z,1.60
2019-05-17T09:00:20.714Z,1.50
2019-05-17T09:03:30.160Z,1.40
2019-05-17T09:06:43.111Z,1.17
2019-05-17T09:09:20.373Z,1.30
2019-05-17T09:12:29.860Z,1.40
2019-05-17T09:15:10.548Z,1.40
2019-05-17T09:17:49.881Z,1.30
2019-05-17T09:20:31.402Z,1.40
2019-05-17T09:23:21.035Z,1.15
2019-05-17T09:25:59.457Z,1.12
2019-05-17T09:28:30.198Z,1.40
2019-05-17T09:31:02.695Z,1.40
2019-05-17T09:36:46.770Z,1.60
2019-05-17T09:39:25.827Z,1.22
2019-05-17T09:41:59.639Z,1.47
2019-05-17T09:44:40.565Z,1.20
2019-05-17T09:47:25.473Z,1.27
2019-05-17T09:50:32.996Z,1.10
2019-05-17T09:53:21.749Z,1.45
2019-05-17T09:55:56.377Z,1.37
2019-05-17T09:58:31.101Z,1.17
2019-05-17T10:01:10.382Z,1.30
2019-05-17T10:03:50.375Z,1.10
2019-05-17T10:06:20.399Z,1.45
2019-05-17T10:09:00.182Z,1.35
2019-05-17T10:11:49.344Z,1.20
2019-05-17T10:14:52.555Z,1.52
2019-05-17T10:17:21.888Z,1.40
2019-05-17T10:20:19.969Z,1.40
2019-05-17T10:23:04.221Z,1.40
2019-05-17T10:25:49.675Z,1.40
2019-05-17T10:28:23.720Z,1.40
2019-05-17T10:30:57.457Z,1.10
2019-05-17T10:33:40.068Z,1.32
2019-05-17T10:36:14.509Z,1.10
2019-05-17T10:38:50.029Z,1.35
2019-05-17T10:41:31.114Z,1.30
2019-05-17T10:44:41.031Z,1.40
2019-05-17T10:47:03.488Z,1.37
2019-05-17T10:49:40.049Z,1.15
2019-05-17T10:52:24.741Z,1.25
2019-05-17T10:55:05.575Z,1.30
2019-05-17T10:57:38.293Z,1.30
2019-05-17T11:00:09.856Z,3.00
2019-05-17T11:02:41.086Z,3.45
2019-05-17T11:05:14.971Z,2.92
2019-05-17T11:07:52.001Z,2.47
2019-05-17T11:10:21.549Z,2.33
2019-05-17T11:13:04.561Z,2.70
2019-05-17T11:15:48.955Z,2.60
2019-05-17T11:18:38.286Z,2.02
2019-05-17T11:21:09.963Z,2.17
2019-05-17T11:23:52.208Z,2.33
2019-05-17T11:26:40.872Z,1.90
2019-05-17T11:29:27.911Z,1.95
2019-05-17T11:32:00.865Z,7.78
2019-05-17T11:37:30.739Z,6.87
2019-05-17T11:40:20.782Z,6.10
2019-05-17T11:43:00.648Z,5.03
2019-05-17T11:45:45.840Z,4.28
2019-05-17T11:48:17.898Z,4.40
2019-05-17T11:50:49.499Z,4.40
2019-05-17T11:55:48.535Z,6.08
2019-05-17T11:58:24.046Z,7.33
2019-05-17T12:03:49.635Z,7.22
2019-05-17T12:06:21.302Z,6.67
2019-05-17T12:11:38.288Z,6.55
2019-05-17T12:14:15.628Z,6.60
2019-05-17T12:16:48.264Z,7.42
2019-05-17T12:19:40.532Z,6.17
2019-05-17T12:22:09.726Z,7.40
2019-05-17T12:24:51.865Z,6.30
2019-05-17T12:27:25.189Z,6.45
2019-05-17T12:32:50.659Z,5.90
2019-05-17T12:35:27.524Z,5.80
2019-05-17T12:38:02.119Z,6.30
2019-05-17T12:40:32.025Z,5.35
2019-05-17T12:43:01.419Z,5.60
2019-05-17T12:45:30.665Z,5.92
2019-05-17T12:48:00.319Z,6.12
2019-05-17T12:50:29.839Z,6.47
2019-05-17T12:52:59.289Z,5.45
2019-05-17T12:55:29.193Z,6.15
2019-05-17T12:57:58.391Z,6.15
2019-05-17T13:00:27.532Z,6.70
2019-05-17T13:03:09.552Z,6.53
2019-05-17T13:05:38.975Z,6.85
2019-05-17T13:08:11.107Z,6.70
2019-05-17T13:10:40.531Z,6.45
2019-05-17T13:13:12.878Z,7.03
2019-05-17T13:15:42.433Z,6.50
2019-05-17T13:18:14.470Z,7.00
2019-05-17T13:20:43.847Z,7.45
2019-05-17T13:23:13.146Z,6.30
2019-05-17T13:25:45.346Z,6.78
2019-05-17T13:28:16.214Z,6.08
2019-05-17T13:31:42.897Z,6.35
2019-05-17T13:34:37.249Z,6.72
2019-05-17T13:37:10.284Z,7.03
2019-05-17T13:39:44.465Z,6.08
2019-05-17T13:42:19.126Z,6.40
2019-05-17T13:45:03.781Z,6.60
2019-05-17T13:47:37.524Z,6.25
2019-05-17T13:50:08.011Z,7.00
2019-05-17T13:52:52.986Z,6.55
2019-05-17T13:55:40.617Z,6.67
2019-05-17T13:58:19.135Z,6.55
2019-05-17T14:00:48.771Z,6.53
2019-05-17T14:03:21.029Z,6.28
2019-05-17T14:05:50.334Z,6.33
2019-05-17T14:08:21.229Z,6.80
2019-05-17T14:10:53.906Z,5.90
2019-05-17T14:13:56.338Z,6.25
2019-05-17T14:16:28.779Z,5.67
2019-05-17T14:19:05.195Z,6.00
2019-05-17T14:21:39.921Z,5.70
2019-05-17T14:24:41.933Z,5.78
2019-05-17T14:27:42.830Z,7.10
2019-05-17T14:30:19.611Z,6.08
2019-05-17T14:33:39.919Z,5.87
2019-05-17T14:36:15.876Z,5.95
2019-05-17T14:39:03.445Z,6.10
2019-05-17T14:41:33.121Z,6.08
2019-05-17T14:44:30.290Z,5.43
2019-05-17T14:47:59.195Z,5.90
2019-05-17T14:50:51.435Z,5.50
2019-05-17T14:54:07.862Z,5.80
2019-05-17T14:56:46.068Z,5.80
2019-05-17T14:59:31.883Z,5.62
2019-05-17T15:02:35.737Z,5.78
2019-05-17T15:05:14.214Z,6.03
2019-05-17T15:07:45.256Z,6.45
2019-05-17T15:10:15.338Z,5.92
2019-05-17T15:12:44.692Z,6.42
2019-05-17T15:15:25.769Z,7.25
2019-05-17T15:17:49.381Z,6.08
2019-05-17T15:20:19.146Z,6.20
2019-05-17T15:22:49.936Z,6.30
2019-05-17T15:28:45.286Z,5.87
2019-05-17T15:31:25.430Z,6.60
2019-05-17T15:33:59.342Z,6.25
2019-05-17T15:36:28.538Z,6.28
2019-05-17T15:38:58.037Z,5.62
2019-05-17T15:41:27.500Z,4.80
2019-05-17T15:44:00.202Z,4.97
2019-05-17T15:46:29.654Z,4.90
2019-05-17T15:48:58.893Z,5.33
2019-05-17T15:51:28.028Z,4.85
2019-05-17T15:53:57.350Z,5.00
2019-05-17T15:56:28.348Z,4.85
2019-05-17T15:59:04.919Z,5.17
2019-05-17T16:01:39.638Z,4.83
2019-05-17T16:04:10.733Z,4.87
2019-05-17T16:06:43.093Z,4.85
2019-05-17T16:09:14.902Z,5.05
2019-05-17T16:11:47.570Z,4.60
2019-05-17T16:14:23.532Z,4.58
2019-05-17T16:16:52.653Z,4.28
2019-05-17T16:19:24.081Z,5.20
2019-05-17T16:21:53.723Z,4.95
2019-05-17T16:24:23.251Z,5.45
2019-05-17T16:26:53.954Z,5.95
2019-05-17T16:29:24.386Z,10.83
2019-05-17T16:31:53.977Z,30.08
2019-05-17T16:34:23.672Z,43.83
2019-05-17T16:36:52.942Z,41.08
2019-05-17T16:39:22.817Z,31.70
2019-05-17T16:42:01.485Z,26.70
2019-05-17T16:44:37.052Z,26.45
2019-05-17T16:47:06.353Z,25.27
2019-05-17T16:49:38.654Z,23.40
2019-05-17T16:52:07.760Z,23.62
2019-05-17T16:55:05.126Z,23.18
2019-05-17T16:57:39.333Z,22.58
2019-05-17T17:00:30.567Z,22.07
2019-05-17T17:03:02.387Z,21.37
2019-05-17T17:11:13.181Z,18.05
2019-05-17T17:13:42.061Z,20.37
2019-05-17T17:16:15.387Z,18.95
2019-05-17T17:18:44.467Z,17.75
2019-05-17T17:21:13.785Z,17.12
2019-05-17T17:23:42.630Z,16.00
2019-05-17T17:26:11.690Z,16.50
2019-05-17T17:28:40.877Z,15.58
2019-05-17T17:31:13.594Z,15.53
2019-05-17T17:33:43.201Z,15.88
2019-05-17T17:36:12.311Z,14.38
2019-05-17T17:38:41.555Z,12.90
2019-05-17T17:41:11.056Z,11.65
2019-05-17T17:43:40.019Z,12.10
2019-05-17T17:46:09.174Z,10.70
2019-05-17T17:48:38.775Z,11.40
2019-05-17T17:51:08.076Z,10.85
2019-05-17T17:53:37.151Z,10.15
2019-05-17T17:56:07.848Z,10.85
2019-05-17T17:58:37.225Z,9.73
2019-05-17T18:01:06.660Z,9.93
2019-05-17T18:03:37.240Z,8.73
2019-05-17T18:06:08.077Z,9.30
2019-05-17T18:08:37.523Z,8.27
2019-05-17T18:11:10.563Z,8.55
2019-05-17T18:13:39.830Z,9.08
2019-05-17T18:16:11.806Z,8.15
2019-05-17T18:18:52.908Z,8.63
2019-05-17T18:21:22.903Z,7.85
2019-05-17T18:23:53.328Z,8.28
2019-05-17T18:26:22.573Z,7.97
2019-05-17T18:28:51.693Z,8.38
2019-05-17T18:31:20.652Z,9.03
2019-05-17T18:33:49.741Z,7.00
2019-05-17T18:36:18.938Z,7.58
2019-05-17T18:38:49.762Z,8.23
2019-05-17T18:41:21.952Z,8.73
2019-05-17T18:43:51.416Z,8.45
2019-05-17T18:46:22.215Z,8.28
2019-05-17T18:48:51.204Z,7.53
2019-05-17T18:51:20.490Z,7.12
2019-05-17T18:53:49.689Z,7.33
2019-05-17T18:56:18.944Z,6.90
2019-05-17T18:58:48.436Z,6.35
2019-05-17T19:01:17.920Z,6.65
2019-05-17T19:03:47.117Z,6.05
2019-05-17T19:06:16.157Z,6.95
2019-05-17T19:08:45.080Z,6.55
2019-05-17T19:11:15.915Z,6.28
2019-05-17T19:13:44.941Z,6.70
2019-05-17T19:16:14.065Z,6.53
2019-05-17T19:18:43.267Z,6.28
2019-05-17T19:21:12.339Z,7.08
2019-05-17T19:23:41.531Z,6.15
2019-05-17T19:26:20.437Z,5.90
2019-05-17T19:28:49.685Z,7.17
2019-05-17T19:31:18.967Z,6.53
2019-05-17T19:33:48.074Z,6.67
2019-05-17T19:36:17.163Z,6.37
2019-05-17T19:38:48.964Z,6.45
2019-05-17T19:41:19.811Z,6.58
2019-05-17T19:43:48.847Z,6.70
2019-05-17T19:46:18.468Z,6.80
2019-05-17T19:48:47.615Z,7.10
2019-05-17T19:51:16.851Z,6.90
2019-05-17T19:53:46.063Z,6.42
2019-05-17T19:56:15.168Z,6.90
2019-05-17T19:58:47.595Z,6.70
2019-05-17T20:01:19.933Z,6.45
2019-05-17T20:03:49.001Z,6.80
2019-05-17T20:06:20.874Z,6.75
2019-05-17T20:08:49.935Z,6.37
2019-05-17T20:11:33.395Z,6.75
2019-05-17T20:13:49.768Z,7.23
2019-05-17T20:16:18.897Z,6.50
2019-05-17T20:18:48.157Z,6.90
2019-05-17T20:21:17.130Z,6.75
2019-05-17T20:23:46.130Z,6.70
2019-05-17T20:26:15.291Z,6.20
2019-05-17T20:28:44.613Z,6.90
2019-05-17T20:31:13.813Z,6.80
2019-05-17T20:33:47.779Z,6.42
2019-05-17T20:36:16.960Z,6.47
2019-05-17T20:38:54.915Z,6.53
2019-05-17T20:41:25.854Z,6.70
2019-05-17T20:43:54.930Z,7.10
2019-05-17T20:46:27.049Z,6.10
2019-05-17T20:49:06.489Z,7.17
2019-05-17T20:51:45.775Z,6.22
2019-05-17T20:54:18.688Z,7.05
2019-05-17T20:56:47.923Z,6.85
2019-05-17T20:59:16.945Z,6.58
2019-05-17T21:02:02.855Z,6.17
2019-05-17T21:04:36.331Z,5.58
2019-05-17T21:07:13.315Z,7.15
2019-05-17T21:09:46.611Z,7.30
2019-05-17T21:12:15.746Z,6.60
2019-05-17T21:14:49.186Z,6.55
2019-05-17T21:17:19.938Z,6.70
2019-05-17T21:19:51.840Z,7.10
2019-05-17T21:22:28.942Z,7.00
2019-05-17T21:24:58.409Z,7.30
2019-05-17T21:27:29.682Z,6.80
2019-05-17T21:29:58.695Z,6.58
2019-05-17T21:32:30.933Z,7.05
2019-05-17T21:35:05.481Z,6.03
2019-05-17T21:37:38.154Z,6.17
2019-05-17T21:40:09.931Z,6.60
2019-05-17T21:42:38.828Z,6.97
2019-05-17T21:45:08.620Z,6.60
2019-05-17T21:47:46.132Z,7.28
2019-05-17T21:50:15.090Z,7.12
2019-05-17T21:52:44.463Z,6.95
2019-05-17T21:55:15.563Z,6.05
2019-05-17T21:57:48.057Z,6.92
2019-05-17T22:00:38.726Z,7.40
2019-05-17T22:03:09.142Z,6.42
2019-05-17T22:05:38.467Z,6.37
2019-05-17T22:08:16.201Z,5.62
2019-05-17T22:10:45.789Z,7.17
2019-05-17T22:13:21.389Z,6.53
2019-05-17T22:16:19.603Z,6.15
2019-05-17T22:18:45.472Z,6.33
2019-05-17T22:21:19.672Z,6.50
2019-05-17T22:23:50.915Z,6.33
2019-05-17T22:26:20.773Z,6.62
2019-05-17T22:29:11.317Z,6.05
2019-05-17T22:31:53.855Z,7.30
2019-05-17T22:34:23.325Z,6.08
2019-05-17T22:37:01.906Z,6.87
2019-05-17T22:39:39.033Z,6.50
2019-05-17T22:42:13.778Z,6.35
2019-05-17T22:44:43.193Z,6.53
2019-05-17T22:47:12.998Z,6.35
2019-05-17T22:49:48.740Z,5.55
2019-05-17T22:52:21.289Z,7.00
2019-05-17T22:55:03.707Z,6.70
2019-05-17T22:57:36.272Z,6.03
2019-05-17T23:00:05.985Z,6.58
2019-05-17T23:02:42.554Z,5.90
2019-05-17T23:05:12.071Z,5.95
2019-05-17T23:07:41.670Z,6.37
2019-05-17T23:10:12.828Z,6.22
2019-05-17T23:12:43.390Z,5.80
2019-05-17T23:15:12.527Z,6.42
2019-05-17T23:17:43.459Z,5.80
2019-05-17T23:20:17.359Z,6.03
2019-05-17T23:22:51.444Z,5.75
2019-05-17T23:25:20.952Z,5.85
2019-05-17T23:28:00.757Z,6.03
2019-05-17T23:30:33.344Z,5.70
2019-05-17T23:33:10.518Z,6.12
2019-05-17T23:35:40.022Z,6.17
2019-05-17T23:38:09.427Z,5.55
2019-05-17T23:40:50.244Z,5.53
2019-05-17T23:43:22.773Z,6.10
2019-05-17T23:45:55.040Z,5.20
2019-05-17T23:48:33.771Z,5.47
2019-05-17T23:51:03.010Z,5.60
2019-05-17T23:53:35.170Z,5.62
2019-05-17T23:56:04.474Z,5.25
2019-05-17T23:58:33.861Z,6.42
